Accueil
METAR-TAF:

METAR-TAF

Aéroports :

Aéroport de Chambéry-Savoie

Chambery / Aix-Les-Bains, France

latitude: 45-39N, longitude: 005-53E, altitude: 235 m

Observation

Le bulletin a été fait il y a 11 minutes, à 19:00 UTC
Vent 13 kt de nord
Température 23°C
Humidité 47%
Pression 1018 hPa
Visibilité 10 km ou plus
pas de nuages en-dessous de 1500 mètres et pas de cumulonimbus.

METAR: LFLB 251900Z AUTO 36013KT CAVOK 23/11 Q1018 NOSIG

Heure: 21:11 (19:11 UTC)

Prévision

Le bulletin a été fait il y a 8 heures et 11 minutes, à 11:00 UTC
Prévision valable du 25 à 12 UTC au 26 à 12 UTC
Vent 10 kt de nord
Visibilité 10 km ou plus
pas de nuages en-dessous de 1500 mètres et pas de cumulonimbus.
Temporairement
du 25 à 12 UTC au 25 à 19 UTC
Vent 12 kt de nord avec des rafales jusqu'à 25 kt

TAF: LFLB 251100Z 2512/2612 36010KT CAVOK TEMPO 2512/2519 36012G25KT

Observations et prévisions météorologiques de plus de 4000 aéroports (messages METAR et TAF).

Les stations disponibles sont représentées par des disques jaunes et rouges sur la carte.

Passer la souris dessus pour voir le nom de la station.

Cliquer dessus pour voir les observations et prévisions météorologiques.

Pour changer de carte: cliquez sur les boutons verts avec une croix noire pour zoomer, sur le bouton vert avec un tiret pour effectuer un zoom arrière, ou sur les flèches vertes pour les cartes adjacentes.


METAR-TAF: